sensor_id;sensor_type;location;lat;lon;timestamp;P1;durP1;ratioP1;P2;durP2;ratioP2
10463;SDS011;5279;42.048;24.638;2023-04-29T00:01:24;3.90;;;2.93;;
10463;SDS011;5279;42.048;24.638;2023-04-29T00:03:52;3.53;;;3.20;;
10463;SDS011;5279;42.048;24.638;2023-04-29T00:06:19;3.40;;;2.73;;
10463;SDS011;5279;42.048;24.638;2023-04-29T00:08:46;4.97;;;2.83;;
10463;SDS011;5279;42.048;24.638;2023-04-29T00:14:20;4.57;;;2.93;;
10463;SDS011;5279;42.048;24.638;2023-04-29T00:16:48;3.50;;;3.17;;
10463;SDS011;5279;42.048;24.638;2023-04-29T00:19:15;5.70;;;3.27;;
10463;SDS011;5279;42.048;24.638;2023-04-29T00:21:42;3.37;;;3.07;;
10463;SDS011;5279;42.048;24.638;2023-04-29T00:24:09;4.33;;;3.20;;
10463;SDS011;5279;42.048;24.638;2023-04-29T00:26:36;4.27;;;3.47;;
10463;SDS011;5279;42.048;24.638;2023-04-29T00:29:03;3.73;;;3.30;;
10463;SDS011;5279;42.048;24.638;2023-04-29T00:31:30;4.03;;;3.13;;
10463;SDS011;5279;42.048;24.638;2023-04-29T00:33:59;4.27;;;3.40;;
10463;SDS011;5279;42.048;24.638;2023-04-29T00:36:26;5.13;;;2.83;;
10463;SDS011;5279;42.048;24.638;2023-04-29T00:38:58;3.83;;;3.30;;
10463;SDS011;5279;42.048;24.638;2023-04-29T00:41:25;3.00;;;2.70;;
10463;SDS011;5279;42.048;24.638;2023-04-29T00:43:52;3.23;;;2.93;;
10463;SDS011;5279;42.048;24.638;2023-04-29T00:46:20;6.17;;;3.13;;
10463;SDS011;5279;42.048;24.638;2023-04-29T00:48:47;3.70;;;2.90;;
10463;SDS011;5279;42.048;24.638;2023-04-29T00:51:17;3.10;;;2.53;;
10463;SDS011;5279;42.048;24.638;2023-04-29T00:53:44;3.73;;;2.90;;
10463;SDS011;5279;42.048;24.638;2023-04-29T00:56:11;3.20;;;2.90;;
10463;SDS011;5279;42.048;24.638;2023-04-29T00:58:40;3.87;;;2.53;;
10463;SDS011;5279;42.048;24.638;2023-04-29T01:01:14;4.13;;;3.43;;
10463;SDS011;5279;42.048;24.638;2023-04-29T01:03:41;3.30;;;2.80;;
10463;SDS011;5279;42.048;24.638;2023-04-29T01:06:12;4.07;;;2.87;;
10463;SDS011;5279;42.048;24.638;2023-04-29T01:08:51;3.87;;;2.90;;
10463;SDS011;5279;42.048;24.638;2023-04-29T01:11:30;4.17;;;2.53;;
10463;SDS011;5279;42.048;24.638;2023-04-29T01:14:04;3.60;;;2.77;;
10463;SDS011;5279;42.048;24.638;2023-04-29T01:16:33;3.70;;;3.00;;
10463;SDS011;5279;42.048;24.638;2023-04-29T01:19:05;3.43;;;2.23;;
10463;SDS011;5279;42.048;24.638;2023-04-29T01:21:47;2.90;;;2.70;;
10463;SDS011;5279;42.048;24.638;2023-04-29T01:24:15;3.27;;;2.47;;
10463;SDS011;5279;42.048;24.638;2023-04-29T01:26:43;4.50;;;2.97;;
10463;SDS011;5279;42.048;24.638;2023-04-29T01:29:19;2.67;;;2.47;;
10463;SDS011;5279;42.048;24.638;2023-04-29T01:31:50;3.30;;;2.67;;
10463;SDS011;5279;42.048;24.638;2023-04-29T01:34:33;3.17;;;2.63;;
10463;SDS011;5279;42.048;24.638;2023-04-29T01:37:06;3.87;;;2.60;;
10463;SDS011;5279;42.048;24.638;2023-04-29T01:39:45;2.80;;;2.60;;
10463;SDS011;5279;42.048;24.638;2023-04-29T01:42:23;4.33;;;2.90;;
10463;SDS011;5279;42.048;24.638;2023-04-29T01:44:56;2.63;;;2.43;;
10463;SDS011;5279;42.048;24.638;2023-04-29T01:47:29;2.57;;;2.20;;
10463;SDS011;5279;42.048;24.638;2023-04-29T01:49:59;2.70;;;2.47;;
10463;SDS011;5279;42.048;24.638;2023-04-29T01:52:26;4.10;;;2.70;;
10463;SDS011;5279;42.048;24.638;2023-04-29T01:54:55;2.47;;;2.10;;
10463;SDS011;5279;42.048;24.638;2023-04-29T01:57:22;2.57;;;2.37;;
10463;SDS011;5279;42.048;24.638;2023-04-29T01:59:49;3.80;;;2.77;;
10463;SDS011;5279;42.048;24.638;2023-04-29T02:02:17;3.97;;;2.40;;
10463;SDS011;5279;42.048;24.638;2023-04-29T02:04:45;3.50;;;2.57;;
10463;SDS011;5279;42.048;24.638;2023-04-29T02:07:12;2.73;;;2.53;;
10463;SDS011;5279;42.048;24.638;2023-04-29T02:09:40;2.80;;;2.53;;
10463;SDS011;5279;42.048;24.638;2023-04-29T02:12:08;2.70;;;2.50;;
10463;SDS011;5279;42.048;24.638;2023-04-29T02:14:35;2.80;;;2.40;;
10463;SDS011;5279;42.048;24.638;2023-04-29T02:17:02;2.57;;;2.37;;
10463;SDS011;5279;42.048;24.638;2023-04-29T02:19:29;3.47;;;2.80;;
10463;SDS011;5279;42.048;24.638;2023-04-29T02:21:56;2.50;;;2.30;;
10463;SDS011;5279;42.048;24.638;2023-04-29T02:24:23;5.00;;;3.07;;
10463;SDS011;5279;42.048;24.638;2023-04-29T02:26:50;2.33;;;2.13;;
10463;SDS011;5279;42.048;24.638;2023-04-29T02:29:19;2.60;;;2.40;;
10463;SDS011;5279;42.048;24.638;2023-04-29T02:31:46;3.07;;;2.73;;
10463;SDS011;5279;42.048;24.638;2023-04-29T02:34:13;3.03;;;2.30;;
10463;SDS011;5279;42.048;24.638;2023-04-29T02:36:40;2.87;;;2.53;;
10463;SDS011;5279;42.048;24.638;2023-04-29T02:39:07;2.60;;;2.40;;
10463;SDS011;5279;42.048;24.638;2023-04-29T02:41:35;4.43;;;2.50;;
10463;SDS011;5279;42.048;24.638;2023-04-29T02:44:02;2.70;;;2.50;;
10463;SDS011;5279;42.048;24.638;2023-04-29T02:46:30;5.83;;;3.27;;
10463;SDS011;5279;42.048;24.638;2023-04-29T02:48:59;6.13;;;2.60;;
10463;SDS011;5279;42.048;24.638;2023-04-29T02:51:26;2.63;;;2.43;;
10463;SDS011;5279;42.048;24.638;2023-04-29T02:53:55;3.33;;;3.03;;
10463;SDS011;5279;42.048;24.638;2023-04-29T02:56:22;4.93;;;2.67;;
10463;SDS011;5279;42.048;24.638;2023-04-29T02:58:49;3.53;;;2.50;;
10463;SDS011;5279;42.048;24.638;2023-04-29T03:01:16;3.07;;;2.87;;
10463;SDS011;5279;42.048;24.638;2023-04-29T03:03:45;4.40;;;2.80;;
10463;SDS011;5279;42.048;24.638;2023-04-29T03:06:13;4.10;;;2.73;;
10463;SDS011;5279;42.048;24.638;2023-04-29T03:08:40;3.23;;;2.80;;
10463;SDS011;5279;42.048;24.638;2023-04-29T03:11:07;2.83;;;2.53;;
10463;SDS011;5279;42.048;24.638;2023-04-29T03:13:34;4.20;;;3.23;;
10463;SDS011;5279;42.048;24.638;2023-04-29T03:16:02;4.07;;;2.80;;
10463;SDS011;5279;42.048;24.638;2023-04-29T03:18:29;3.30;;;3.00;;
10463;SDS011;5279;42.048;24.638;2023-04-29T03:21:00;3.73;;;2.50;;
10463;SDS011;5279;42.048;24.638;2023-04-29T03:23:28;4.30;;;3.13;;
10463;SDS011;5279;42.048;24.638;2023-04-29T03:25:55;5.53;;;2.73;;
10463;SDS011;5279;42.048;24.638;2023-04-29T03:28:22;3.10;;;2.77;;
10463;SDS011;5279;42.048;24.638;2023-04-29T03:30:49;4.87;;;2.90;;
10463;SDS011;5279;42.048;24.638;2023-04-29T03:33:16;2.90;;;2.70;;
10463;SDS011;5279;42.048;24.638;2023-04-29T03:35:43;2.97;;;2.67;;
10463;SDS011;5279;42.048;24.638;2023-04-29T03:38:12;2.90;;;2.63;;
10463;SDS011;5279;42.048;24.638;2023-04-29T03:40:38;2.97;;;2.60;;
10463;SDS011;5279;42.048;24.638;2023-04-29T03:43:06;3.23;;;2.87;;
10463;SDS011;5279;42.048;24.638;2023-04-29T03:45:33;3.17;;;2.97;;
10463;SDS011;5279;42.048;24.638;2023-04-29T03:48:00;5.57;;;3.30;;
10463;SDS011;5279;42.048;24.638;2023-04-29T03:50:27;2.90;;;2.70;;
10463;SDS011;5279;42.048;24.638;2023-04-29T03:52:54;3.87;;;3.10;;
10463;SDS011;5279;42.048;24.638;2023-04-29T03:55:23;2.80;;;2.60;;
10463;SDS011;5279;42.048;24.638;2023-04-29T03:57:50;3.90;;;3.50;;
10463;SDS011;5279;42.048;24.638;2023-04-29T04:00:17;3.60;;;3.17;;
10463;SDS011;5279;42.048;24.638;2023-04-29T04:02:44;4.63;;;3.70;;
10463;SDS011;5279;42.048;24.638;2023-04-29T04:05:11;4.43;;;3.27;;
10463;SDS011;5279;42.048;24.638;2023-04-29T04:07:37;3.80;;;3.50;;
10463;SDS011;5279;42.048;24.638;2023-04-29T04:10:05;4.17;;;3.00;;
10463;SDS011;5279;42.048;24.638;2023-04-29T04:12:33;3.47;;;3.17;;
10463;SDS011;5279;42.048;24.638;2023-04-29T04:15:00;3.17;;;2.90;;
10463;SDS011;5279;42.048;24.638;2023-04-29T04:17:28;3.00;;;2.80;;
10463;SDS011;5279;42.048;24.638;2023-04-29T04:19:55;2.90;;;2.67;;
10463;SDS011;5279;42.048;24.638;2023-04-29T04:22:22;2.57;;;2.37;;
10463;SDS011;5279;42.048;24.638;2023-04-29T04:24:49;4.43;;;2.40;;
10463;SDS011;5279;42.048;24.638;2023-04-29T04:27:16;2.53;;;2.33;;
10463;SDS011;5279;42.048;24.638;2023-04-29T04:29:45;2.50;;;2.30;;
10463;SDS011;5279;42.048;24.638;2023-04-29T04:32:12;2.50;;;2.30;;
10463;SDS011;5279;42.048;24.638;2023-04-29T04:34:42;3.17;;;2.87;;
10463;SDS011;5279;42.048;24.638;2023-04-29T04:37:08;2.90;;;2.70;;
10463;SDS011;5279;42.048;24.638;2023-04-29T04:39:36;2.60;;;2.40;;
10463;SDS011;5279;42.048;24.638;2023-04-29T04:42:04;2.83;;;2.50;;
10463;SDS011;5279;42.048;24.638;2023-04-29T04:44:31;2.53;;;2.33;;
10463;SDS011;5279;42.048;24.638;2023-04-29T04:46:59;2.73;;;2.53;;
10463;SDS011;5279;42.048;24.638;2023-04-29T04:49:26;2.37;;;2.20;;
10463;SDS011;5279;42.048;24.638;2023-04-29T04:51:53;2.20;;;2.10;;
10463;SDS011;5279;42.048;24.638;2023-04-29T04:54:20;2.20;;;2.00;;
10463;SDS011;5279;42.048;24.638;2023-04-29T04:56:46;2.90;;;2.63;;
10463;SDS011;5279;42.048;24.638;2023-04-29T04:59:16;4.43;;;2.80;;
10463;SDS011;5279;42.048;24.638;2023-04-29T05:01:43;3.47;;;2.53;;
10463;SDS011;5279;42.048;24.638;2023-04-29T05:04:11;3.70;;;2.70;;
10463;SDS011;5279;42.048;24.638;2023-04-29T05:06:38;2.57;;;2.37;;
10463;SDS011;5279;42.048;24.638;2023-04-29T05:09:04;3.20;;;2.10;;
10463;SDS011;5279;42.048;24.638;2023-04-29T05:11:31;3.00;;;2.47;;
10463;SDS011;5279;42.048;24.638;2023-04-29T05:13:58;6.67;;;2.77;;
10463;SDS011;5279;42.048;24.638;2023-04-29T05:16:25;2.40;;;2.20;;
10463;SDS011;5279;42.048;24.638;2023-04-29T05:18:52;2.83;;;2.10;;
10463;SDS011;5279;42.048;24.638;2023-04-29T05:21:20;2.57;;;2.37;;
10463;SDS011;5279;42.048;24.638;2023-04-29T05:23:47;4.17;;;2.60;;
10463;SDS011;5279;42.048;24.638;2023-04-29T05:26:14;2.47;;;2.27;;
10463;SDS011;5279;42.048;24.638;2023-04-29T05:28:41;2.50;;;2.20;;
10463;SDS011;5279;42.048;24.638;2023-04-29T05:31:08;2.40;;;2.20;;
10463;SDS011;5279;42.048;24.638;2023-04-29T05:33:35;2.30;;;2.10;;
10463;SDS011;5279;42.048;24.638;2023-04-29T05:36:02;3.90;;;2.67;;
10463;SDS011;5279;42.048;24.638;2023-04-29T05:38:33;3.23;;;2.50;;
10463;SDS011;5279;42.048;24.638;2023-04-29T05:41:00;3.07;;;2.57;;
10463;SDS011;5279;42.048;24.638;2023-04-29T05:43:27;3.17;;;2.40;;
10463;SDS011;5279;42.048;24.638;2023-04-29T05:45:54;2.20;;;2.00;;
10463;SDS011;5279;42.048;24.638;2023-04-29T05:48:21;2.50;;;2.07;;
10463;SDS011;5279;42.048;24.638;2023-04-29T05:50:50;2.60;;;2.23;;
10463;SDS011;5279;42.048;24.638;2023-04-29T05:53:18;2.30;;;2.07;;
10463;SDS011;5279;42.048;24.638;2023-04-29T05:55:46;2.67;;;2.43;;
10463;SDS011;5279;42.048;24.638;2023-04-29T05:58:14;2.70;;;2.03;;
10463;SDS011;5279;42.048;24.638;2023-04-29T06:00:42;3.97;;;2.03;;
10463;SDS011;5279;42.048;24.638;2023-04-29T06:03:09;2.93;;;2.17;;
10463;SDS011;5279;42.048;24.638;2023-04-29T06:05:36;4.17;;;2.20;;
10463;SDS011;5279;42.048;24.638;2023-04-29T06:08:03;4.80;;;2.30;;
10463;SDS011;5279;42.048;24.638;2023-04-29T06:10:30;3.00;;;1.97;;
10463;SDS011;5279;42.048;24.638;2023-04-29T06:13:00;2.70;;;2.50;;
10463;SDS011;5279;42.048;24.638;2023-04-29T06:15:27;2.50;;;2.30;;
10463;SDS011;5279;42.048;24.638;2023-04-29T06:17:53;3.50;;;3.00;;
10463;SDS011;5279;42.048;24.638;2023-04-29T06:20:20;6.50;;;2.87;;
10463;SDS011;5279;42.048;24.638;2023-04-29T06:22:47;3.63;;;3.33;;
10463;SDS011;5279;42.048;24.638;2023-04-29T06:25:14;3.20;;;2.90;;
10463;SDS011;5279;42.048;24.638;2023-04-29T06:27:41;3.87;;;3.17;;
10463;SDS011;5279;42.048;24.638;2023-04-29T06:30:11;5.37;;;3.40;;
10463;SDS011;5279;42.048;24.638;2023-04-29T06:32:38;4.67;;;3.43;;
10463;SDS011;5279;42.048;24.638;2023-04-29T06:35:06;3.33;;;3.03;;
10463;SDS011;5279;42.048;24.638;2023-04-29T06:37:34;4.47;;;3.47;;
10463;SDS011;5279;42.048;24.638;2023-04-29T06:40:01;3.93;;;3.47;;
10463;SDS011;5279;42.048;24.638;2023-04-29T06:42:28;3.43;;;2.87;;
10463;SDS011;5279;42.048;24.638;2023-04-29T06:45:00;4.37;;;2.73;;
10463;SDS011;5279;42.048;24.638;2023-04-29T06:47:28;3.30;;;2.80;;
10463;SDS011;5279;42.048;24.638;2023-04-29T06:49:55;3.97;;;2.70;;
10463;SDS011;5279;42.048;24.638;2023-04-29T06:52:22;3.87;;;2.43;;
10463;SDS011;5279;42.048;24.638;2023-04-29T06:54:49;3.37;;;2.40;;
10463;SDS011;5279;42.048;24.638;2023-04-29T06:57:16;3.57;;;2.60;;
10463;SDS011;5279;42.048;24.638;2023-04-29T06:59:44;2.50;;;2.30;;
10463;SDS011;5279;42.048;24.638;2023-04-29T07:02:10;4.93;;;2.47;;
10463;SDS011;5279;42.048;24.638;2023-04-29T07:04:39;3.63;;;2.50;;
10463;SDS011;5279;42.048;24.638;2023-04-29T07:07:07;2.97;;;2.73;;
10463;SDS011;5279;42.048;24.638;2023-04-29T07:09:34;3.23;;;2.47;;
10463;SDS011;5279;42.048;24.638;2023-04-29T07:12:01;2.40;;;2.10;;
10463;SDS011;5279;42.048;24.638;2023-04-29T07:14:28;4.83;;;2.07;;
10463;SDS011;5279;42.048;24.638;2023-04-29T07:16:55;5.10;;;2.63;;
10463;SDS011;5279;42.048;24.638;2023-04-29T07:19:22;2.23;;;2.03;;
10463;SDS011;5279;42.048;24.638;2023-04-29T07:21:51;2.43;;;2.23;;
10463;SDS011;5279;42.048;24.638;2023-04-29T07:24:18;4.37;;;2.63;;
10463;SDS011;5279;42.048;24.638;2023-04-29T07:26:44;2.83;;;2.10;;
10463;SDS011;5279;42.048;24.638;2023-04-29T07:29:11;2.23;;;2.10;;
10463;SDS011;5279;42.048;24.638;2023-04-29T07:31:38;3.23;;;2.20;;
10463;SDS011;5279;42.048;24.638;2023-04-29T07:34:05;2.77;;;2.30;;
10463;SDS011;5279;42.048;24.638;2023-04-29T07:36:32;3.10;;;2.50;;
10463;SDS011;5279;42.048;24.638;2023-04-29T07:39:01;3.10;;;2.50;;
10463;SDS011;5279;42.048;24.638;2023-04-29T07:41:28;2.20;;;2.00;;
10463;SDS011;5279;42.048;24.638;2023-04-29T07:43:55;2.67;;;2.20;;
10463;SDS011;5279;42.048;24.638;2023-04-29T07:46:22;2.47;;;2.17;;
10463;SDS011;5279;42.048;24.638;2023-04-29T07:48:48;2.33;;;2.13;;
10463;SDS011;5279;42.048;24.638;2023-04-29T07:51:16;3.00;;;2.10;;
10463;SDS011;5279;42.048;24.638;2023-04-29T07:53:43;2.17;;;1.97;;
10463;SDS011;5279;42.048;24.638;2023-04-29T07:56:11;4.23;;;2.30;;
10463;SDS011;5279;42.048;24.638;2023-04-29T07:58:41;2.50;;;2.20;;
10463;SDS011;5279;42.048;24.638;2023-04-29T08:01:08;3.40;;;2.00;;
10463;SDS011;5279;42.048;24.638;2023-04-29T08:03:36;2.23;;;2.10;;
10463;SDS011;5279;42.048;24.638;2023-04-29T08:06:03;2.80;;;2.20;;
10463;SDS011;5279;42.048;24.638;2023-04-29T08:08:31;2.13;;;1.93;;
10463;SDS011;5279;42.048;24.638;2023-04-29T08:10:58;2.20;;;2.00;;
10463;SDS011;5279;42.048;24.638;2023-04-29T08:13:26;2.50;;;2.30;;
10463;SDS011;5279;42.048;24.638;2023-04-29T08:15:53;5.67;;;2.17;;
10463;SDS011;5279;42.048;24.638;2023-04-29T08:18:20;2.77;;;2.40;;
10463;SDS011;5279;42.048;24.638;2023-04-29T08:20:47;3.37;;;2.40;;
10463;SDS011;5279;42.048;24.638;2023-04-29T08:23:15;3.13;;;2.60;;
10463;SDS011;5279;42.048;24.638;2023-04-29T08:25:43;3.33;;;2.30;;
10463;SDS011;5279;42.048;24.638;2023-04-29T08:28:10;4.70;;;2.30;;
10463;SDS011;5279;42.048;24.638;2023-04-29T08:30:39;3.30;;;2.50;;
10463;SDS011;5279;42.048;24.638;2023-04-29T08:33:07;4.40;;;2.53;;
10463;SDS011;5279;42.048;24.638;2023-04-29T08:35:34;3.10;;;2.80;;
10463;SDS011;5279;42.048;24.638;2023-04-29T08:38:03;3.30;;;2.67;;
10463;SDS011;5279;42.048;24.638;2023-04-29T08:40:32;3.37;;;2.40;;
10463;SDS011;5279;42.048;24.638;2023-04-29T08:43:00;3.93;;;2.60;;
10463;SDS011;5279;42.048;24.638;2023-04-29T08:45:28;3.47;;;2.47;;
10463;SDS011;5279;42.048;24.638;2023-04-29T08:47:59;3.90;;;2.57;;
10463;SDS011;5279;42.048;24.638;2023-04-29T08:50:27;4.03;;;2.73;;
10463;SDS011;5279;42.048;24.638;2023-04-29T08:52:56;2.50;;;2.30;;
10463;SDS011;5279;42.048;24.638;2023-04-29T08:55:23;2.80;;;2.60;;
10463;SDS011;5279;42.048;24.638;2023-04-29T08:57:50;3.27;;;2.60;;
10463;SDS011;5279;42.048;24.638;2023-04-29T09:00:20;3.13;;;2.47;;
10463;SDS011;5279;42.048;24.638;2023-04-29T09:02:49;3.23;;;2.40;;
10463;SDS011;5279;42.048;24.638;2023-04-29T09:05:19;3.07;;;2.70;;
10463;SDS011;5279;42.048;24.638;2023-04-29T09:07:47;2.60;;;2.40;;
10463;SDS011;5279;42.048;24.638;2023-04-29T09:10:15;2.97;;;2.60;;
10463;SDS011;5279;42.048;24.638;2023-04-29T09:12:43;3.17;;;2.33;;
10463;SDS011;5279;42.048;24.638;2023-04-29T09:15:11;2.27;;;2.07;;
10463;SDS011;5279;42.048;24.638;2023-04-29T09:17:41;2.77;;;2.47;;
10463;SDS011;5279;42.048;24.638;2023-04-29T09:20:29;2.50;;;2.30;;
10463;SDS011;5279;42.048;24.638;2023-04-29T09:22:57;4.73;;;2.67;;
10463;SDS011;5279;42.048;24.638;2023-04-29T09:25:25;3.37;;;2.20;;
10463;SDS011;5279;42.048;24.638;2023-04-29T09:27:52;2.73;;;2.47;;
10463;SDS011;5279;42.048;24.638;2023-04-29T09:30:19;2.93;;;2.03;;
10463;SDS011;5279;42.048;24.638;2023-04-29T09:33:03;5.17;;;1.90;;
10463;SDS011;5279;42.048;24.638;2023-04-29T09:35:33;2.10;;;1.90;;
10463;SDS011;5279;42.048;24.638;2023-04-29T09:38:07;2.47;;;2.00;;
10463;SDS011;5279;42.048;24.638;2023-04-29T09:40:36;2.77;;;1.97;;
10463;SDS011;5279;42.048;24.638;2023-04-29T09:43:03;2.00;;;1.80;;
10463;SDS011;5279;42.048;24.638;2023-04-29T09:45:39;2.83;;;1.90;;
10463;SDS011;5279;42.048;24.638;2023-04-29T09:48:08;3.10;;;1.97;;
10463;SDS011;5279;42.048;24.638;2023-04-29T09:50:37;2.80;;;2.00;;
10463;SDS011;5279;42.048;24.638;2023-04-29T09:53:05;4.27;;;1.67;;
10463;SDS011;5279;42.048;24.638;2023-04-29T09:55:34;2.00;;;1.80;;
10463;SDS011;5279;42.048;24.638;2023-04-29T09:58:01;2.80;;;1.90;;
10463;SDS011;5279;42.048;24.638;2023-04-29T10:00:29;3.20;;;1.67;;
10463;SDS011;5279;42.048;24.638;2023-04-29T10:02:58;2.43;;;1.53;;
10463;SDS011;5279;42.048;24.638;2023-04-29T10:05:26;3.17;;;2.30;;
10463;SDS011;5279;42.048;24.638;2023-04-29T10:07:56;5.17;;;2.37;;
10463;SDS011;5279;42.048;24.638;2023-04-29T10:10:23;3.73;;;1.93;;
10463;SDS011;5279;42.048;24.638;2023-04-29T10:12:52;3.70;;;1.97;;
10463;SDS011;5279;42.048;24.638;2023-04-29T10:15:20;2.30;;;1.80;;
10463;SDS011;5279;42.048;24.638;2023-04-29T10:17:54;2.27;;;1.83;;
10463;SDS011;5279;42.048;24.638;2023-04-29T10:20:25;2.47;;;1.40;;
10463;SDS011;5279;42.048;24.638;2023-04-29T10:22:54;1.83;;;1.60;;
10463;SDS011;5279;42.048;24.638;2023-04-29T10:25:24;2.57;;;1.77;;
10463;SDS011;5279;42.048;24.638;2023-04-29T10:27:52;2.83;;;1.83;;
10463;SDS011;5279;42.048;24.638;2023-04-29T10:30:21;1.60;;;1.50;;
10463;SDS011;5279;42.048;24.638;2023-04-29T10:32:48;3.47;;;1.73;;
10463;SDS011;5279;42.048;24.638;2023-04-29T10:35:16;2.03;;;1.83;;
10463;SDS011;5279;42.048;24.638;2023-04-29T10:37:45;1.93;;;1.57;;
10463;SDS011;5279;42.048;24.638;2023-04-29T10:40:15;1.90;;;1.70;;
10463;SDS011;5279;42.048;24.638;2023-04-29T10:42:46;13.20;;;8.03;;
10463;SDS011;5279;42.048;24.638;2023-04-29T10:45:18;2.40;;;1.90;;
10463;SDS011;5279;42.048;24.638;2023-04-29T10:51:01;2.40;;;1.40;;
10463;SDS011;5279;42.048;24.638;2023-04-29T10:53:28;1.67;;;1.30;;
10463;SDS011;5279;42.048;24.638;2023-04-29T10:55:58;3.17;;;1.60;;
10463;SDS011;5279;42.048;24.638;2023-04-29T10:58:40;1.80;;;1.33;;
10463;SDS011;5279;42.048;24.638;2023-04-29T11:01:12;2.07;;;1.93;;
10463;SDS011;5279;42.048;24.638;2023-04-29T11:03:49;1.93;;;1.23;;
10463;SDS011;5279;42.048;24.638;2023-04-29T11:06:22;2.20;;;1.43;;
10463;SDS011;5279;42.048;24.638;2023-04-29T11:09:00;1.40;;;1.30;;
10463;SDS011;5279;42.048;24.638;2023-04-29T11:11:40;1.60;;;1.50;;
10463;SDS011;5279;42.048;24.638;2023-04-29T11:14:08;2.23;;;1.70;;
10463;SDS011;5279;42.048;24.638;2023-04-29T11:16:36;1.73;;;1.13;;
10463;SDS011;5279;42.048;24.638;2023-04-29T11:19:03;1.60;;;1.50;;
10463;SDS011;5279;42.048;24.638;2023-04-29T11:21:32;1.47;;;1.37;;
10463;SDS011;5279;42.048;24.638;2023-04-29T11:24:00;1.90;;;1.53;;
10463;SDS011;5279;42.048;24.638;2023-04-29T11:26:27;1.70;;;1.60;;
10463;SDS011;5279;42.048;24.638;2023-04-29T11:28:58;1.53;;;1.43;;
10463;SDS011;5279;42.048;24.638;2023-04-29T11:31:26;1.60;;;1.47;;
10463;SDS011;5279;42.048;24.638;2023-04-29T11:33:55;1.50;;;1.40;;
10463;SDS011;5279;42.048;24.638;2023-04-29T11:36:22;2.07;;;1.40;;
10463;SDS011;5279;42.048;24.638;2023-04-29T11:38:49;1.33;;;1.23;;
10463;SDS011;5279;42.048;24.638;2023-04-29T11:41:16;1.50;;;1.40;;
10463;SDS011;5279;42.048;24.638;2023-04-29T11:43:44;2.90;;;1.40;;
10463;SDS011;5279;42.048;24.638;2023-04-29T11:46:13;5.03;;;1.40;;
10463;SDS011;5279;42.048;24.638;2023-04-29T11:48:48;1.37;;;1.27;;
10463;SDS011;5279;42.048;24.638;2023-04-29T11:51:15;2.63;;;1.60;;
10463;SDS011;5279;42.048;24.638;2023-04-29T11:53:44;1.40;;;1.30;;
10463;SDS011;5279;42.048;24.638;2023-04-29T11:56:11;2.03;;;1.20;;
10463;SDS011;5279;42.048;24.638;2023-04-29T11:58:38;2.40;;;1.30;;
10463;SDS011;5279;42.048;24.638;2023-04-29T12:01:05;1.23;;;1.13;;
10463;SDS011;5279;42.048;24.638;2023-04-29T12:03:33;1.23;;;1.10;;
10463;SDS011;5279;42.048;24.638;2023-04-29T12:06:00;1.30;;;1.20;;
10463;SDS011;5279;42.048;24.638;2023-04-29T12:08:28;2.50;;;1.37;;
10463;SDS011;5279;42.048;24.638;2023-04-29T12:10:57;1.33;;;1.23;;
10463;SDS011;5279;42.048;24.638;2023-04-29T12:13:26;1.50;;;1.30;;
10463;SDS011;5279;42.048;24.638;2023-04-29T12:15:55;1.17;;;1.07;;
10463;SDS011;5279;42.048;24.638;2023-04-29T12:18:23;1.60;;;1.40;;
10463;SDS011;5279;42.048;24.638;2023-04-29T12:20:53;1.47;;;1.00;;
10463;SDS011;5279;42.048;24.638;2023-04-29T12:23:21;1.50;;;1.10;;
10463;SDS011;5279;42.048;24.638;2023-04-29T12:25:51;1.10;;;0.93;;
10463;SDS011;5279;42.048;24.638;2023-04-29T12:28:19;3.17;;;1.10;;
10463;SDS011;5279;42.048;24.638;2023-04-29T12:30:47;1.63;;;1.20;;
10463;SDS011;5279;42.048;24.638;2023-04-29T12:33:18;1.30;;;1.20;;
10463;SDS011;5279;42.048;24.638;2023-04-29T12:35:54;6.73;;;1.60;;
10463;SDS011;5279;42.048;24.638;2023-04-29T12:38:23;1.63;;;1.20;;
10463;SDS011;5279;42.048;24.638;2023-04-29T12:40:51;1.57;;;1.30;;
10463;SDS011;5279;42.048;24.638;2023-04-29T12:43:18;1.43;;;1.03;;
10463;SDS011;5279;42.048;24.638;2023-04-29T12:45:45;4.87;;;1.40;;
10463;SDS011;5279;42.048;24.638;2023-04-29T12:48:12;1.30;;;1.20;;
10463;SDS011;5279;42.048;24.638;2023-04-29T12:50:39;1.90;;;1.60;;
10463;SDS011;5279;42.048;24.638;2023-04-29T12:53:07;2.80;;;1.50;;
10463;SDS011;5279;42.048;24.638;2023-04-29T12:55:36;1.83;;;1.13;;
10463;SDS011;5279;42.048;24.638;2023-04-29T12:58:04;1.00;;;1.00;;
10463;SDS011;5279;42.048;24.638;2023-04-29T13:00:32;1.00;;;1.00;;
10463;SDS011;5279;42.048;24.638;2023-04-29T13:03:01;1.30;;;1.20;;
10463;SDS011;5279;42.048;24.638;2023-04-29T13:05:28;1.50;;;1.40;;
10463;SDS011;5279;42.048;24.638;2023-04-29T13:07:55;1.43;;;1.33;;
10463;SDS011;5279;42.048;24.638;2023-04-29T13:10:23;2.10;;;1.90;;
10463;SDS011;5279;42.048;24.638;2023-04-29T13:12:50;1.63;;;1.10;;
10463;SDS011;5279;42.048;24.638;2023-04-29T13:15:17;1.80;;;1.60;;
10463;SDS011;5279;42.048;24.638;2023-04-29T13:17:44;1.30;;;1.20;;
10463;SDS011;5279;42.048;24.638;2023-04-29T13:20:11;1.47;;;1.37;;
10463;SDS011;5279;42.048;24.638;2023-04-29T13:22:39;2.27;;;1.40;;
10463;SDS011;5279;42.048;24.638;2023-04-29T13:25:07;1.77;;;1.50;;
10463;SDS011;5279;42.048;24.638;2023-04-29T13:27:36;2.37;;;1.50;;
10463;SDS011;5279;42.048;24.638;2023-04-29T13:30:03;1.87;;;1.33;;
10463;SDS011;5279;42.048;24.638;2023-04-29T13:32:31;4.87;;;1.57;;
10463;SDS011;5279;42.048;24.638;2023-04-29T13:34:57;2.80;;;1.40;;
10463;SDS011;5279;42.048;24.638;2023-04-29T13:37:25;2.43;;;1.30;;
10463;SDS011;5279;42.048;24.638;2023-04-29T13:39:51;1.30;;;1.20;;
10463;SDS011;5279;42.048;24.638;2023-04-29T13:42:18;3.53;;;1.40;;
10463;SDS011;5279;42.048;24.638;2023-04-29T13:44:48;1.50;;;1.40;;
10463;SDS011;5279;42.048;24.638;2023-04-29T13:47:15;2.23;;;1.20;;
10463;SDS011;5279;42.048;24.638;2023-04-29T13:49:42;1.37;;;1.27;;
10463;SDS011;5279;42.048;24.638;2023-04-29T13:52:09;3.33;;;1.57;;
10463;SDS011;5279;42.048;24.638;2023-04-29T13:54:36;2.90;;;1.43;;
10463;SDS011;5279;42.048;24.638;2023-04-29T13:57:03;1.53;;;1.20;;
10463;SDS011;5279;42.048;24.638;2023-04-29T13:59:31;2.57;;;1.50;;
10463;SDS011;5279;42.048;24.638;2023-04-29T14:02:00;1.90;;;1.50;;
10463;SDS011;5279;42.048;24.638;2023-04-29T14:04:27;1.60;;;1.50;;
10463;SDS011;5279;42.048;24.638;2023-04-29T14:06:55;2.63;;;1.50;;
10463;SDS011;5279;42.048;24.638;2023-04-29T14:09:22;3.03;;;1.57;;
10463;SDS011;5279;42.048;24.638;2023-04-29T14:11:48;3.70;;;1.83;;
10463;SDS011;5279;42.048;24.638;2023-04-29T14:14:15;1.93;;;1.60;;
10463;SDS011;5279;42.048;24.638;2023-04-29T14:16:42;2.33;;;1.27;;
10463;SDS011;5279;42.048;24.638;2023-04-29T14:19:11;1.73;;;1.20;;
10463;SDS011;5279;42.048;24.638;2023-04-29T14:21:37;1.60;;;1.33;;
10463;SDS011;5279;42.048;24.638;2023-04-29T14:24:04;2.50;;;1.50;;
10463;SDS011;5279;42.048;24.638;2023-04-29T14:26:31;1.80;;;1.47;;
10463;SDS011;5279;42.048;24.638;2023-04-29T14:28:58;2.00;;;1.57;;
10463;SDS011;5279;42.048;24.638;2023-04-29T14:31:25;2.37;;;1.30;;
10463;SDS011;5279;42.048;24.638;2023-04-29T14:33:53;1.60;;;1.50;;
10463;SDS011;5279;42.048;24.638;2023-04-29T14:36:21;1.67;;;1.50;;
10463;SDS011;5279;42.048;24.638;2023-04-29T14:38:48;1.73;;;1.57;;
10463;SDS011;5279;42.048;24.638;2023-04-29T14:41:15;1.40;;;1.30;;
10463;SDS011;5279;42.048;24.638;2023-04-29T14:43:42;2.73;;;1.47;;
10463;SDS011;5279;42.048;24.638;2023-04-29T14:46:09;3.50;;;1.60;;
10463;SDS011;5279;42.048;24.638;2023-04-29T14:48:36;1.40;;;1.30;;
10463;SDS011;5279;42.048;24.638;2023-04-29T14:51:03;1.57;;;1.47;;
10463;SDS011;5279;42.048;24.638;2023-04-29T14:53:32;1.63;;;1.40;;
10463;SDS011;5279;42.048;24.638;2023-04-29T14:55:59;3.63;;;1.80;;
10463;SDS011;5279;42.048;24.638;2023-04-29T14:58:27;3.20;;;1.70;;
10463;SDS011;5279;42.048;24.638;2023-04-29T15:00:54;1.50;;;1.33;;